sensor_id;sensor_type;location;lat;lon;timestamp;temperature;humidity
12769;DHT22;6448;48.916;8.990;2022-09-09T00:00:58;23.10;49.60
12769;DHT22;6448;48.916;8.990;2022-09-09T00:02:04;23.10;49.70
12769;DHT22;6448;48.916;8.990;2022-09-09T00:03:11;23.10;49.70
12769;DHT22;6448;48.916;8.990;2022-09-09T00:04:16;23.20;49.80
12769;DHT22;6448;48.916;8.990;2022-09-09T00:05:26;23.10;49.70
12769;DHT22;6448;48.916;8.990;2022-09-09T00:06:31;23.10;49.70
12769;DHT22;6448;48.916;8.990;2022-09-09T00:07:43;23.10;49.70
12769;DHT22;6448;48.916;8.990;2022-09-09T00:08:58;23.10;49.60
12769;DHT22;6448;48.916;8.990;2022-09-09T00:10:09;23.10;49.70
12769;DHT22;6448;48.916;8.990;2022-09-09T00:11:17;23.10;49.80
12769;DHT22;6448;48.916;8.990;2022-09-09T00:12:32;23.10;49.80
12769;DHT22;6448;48.916;8.990;2022-09-09T00:13:37;23.10;49.80
12769;DHT22;6448;48.916;8.990;2022-09-09T00:14:48;23.10;49.80
12769;DHT22;6448;48.916;8.990;2022-09-09T00:15:57;23.10;49.80
12769;DHT22;6448;48.916;8.990;2022-09-09T00:17:04;23.00;49.80
12769;DHT22;6448;48.916;8.990;2022-09-09T00:18:12;23.00;49.90
12769;DHT22;6448;48.916;8.990;2022-09-09T00:19:20;23.10;50.00
12769;DHT22;6448;48.916;8.990;2022-09-09T00:20:28;23.10;50.00
12769;DHT22;6448;48.916;8.990;2022-09-09T00:21:33;23.00;50.00
12769;DHT22;6448;48.916;8.990;2022-09-09T00:22:36;23.00;50.10
12769;DHT22;6448;48.916;8.990;2022-09-09T00:23:44;23.10;50.10
12769;DHT22;6448;48.916;8.990;2022-09-09T00:24:51;23.00;50.10
12769;DHT22;6448;48.916;8.990;2022-09-09T00:26:00;23.00;50.20
12769;DHT22;6448;48.916;8.990;2022-09-09T00:27:07;23.00;50.30
12769;DHT22;6448;48.916;8.990;2022-09-09T00:28:16;23.00;50.30
12769;DHT22;6448;48.916;8.990;2022-09-09T00:29:23;23.00;50.40
12769;DHT22;6448;48.916;8.990;2022-09-09T00:30:34;23.00;50.40
12769;DHT22;6448;48.916;8.990;2022-09-09T00:31:35;23.00;50.50
12769;DHT22;6448;48.916;8.990;2022-09-09T00:32:38;22.90;50.40
12769;DHT22;6448;48.916;8.990;2022-09-09T00:33:40;23.00;50.50
12769;DHT22;6448;48.916;8.990;2022-09-09T00:34:51;23.00;50.50
12769;DHT22;6448;48.916;8.990;2022-09-09T00:35:56;23.00;50.40
12769;DHT22;6448;48.916;8.990;2022-09-09T00:36:58;23.00;50.30
12769;DHT22;6448;48.916;8.990;2022-09-09T00:38:03;23.00;50.20
12769;DHT22;6448;48.916;8.990;2022-09-09T00:39:12;23.00;50.10
12769;DHT22;6448;48.916;8.990;2022-09-09T00:40:23;23.00;50.00
12769;DHT22;6448;48.916;8.990;2022-09-09T00:41:38;23.00;49.90
12769;DHT22;6448;48.916;8.990;2022-09-09T00:42:42;23.00;49.90
12769;DHT22;6448;48.916;8.990;2022-09-09T00:43:52;22.90;49.80
12769;DHT22;6448;48.916;8.990;2022-09-09T00:45:02;23.00;49.80
12769;DHT22;6448;48.916;8.990;2022-09-09T00:46:23;23.00;49.90
12769;DHT22;6448;48.916;8.990;2022-09-09T00:47:45;23.00;50.00
12769;DHT22;6448;48.916;8.990;2022-09-09T00:48:54;23.00;50.20
12769;DHT22;6448;48.916;8.990;2022-09-09T00:50:00;22.90;50.30
12769;DHT22;6448;48.916;8.990;2022-09-09T00:51:07;23.00;50.30
12769;DHT22;6448;48.916;8.990;2022-09-09T00:52:20;22.90;50.30
12769;DHT22;6448;48.916;8.990;2022-09-09T00:53:34;23.00;50.40
12769;DHT22;6448;48.916;8.990;2022-09-09T00:54:45;23.00;50.50
12769;DHT22;6448;48.916;8.990;2022-09-09T00:55:56;22.90;50.50
12769;DHT22;6448;48.916;8.990;2022-09-09T00:57:10;23.00;50.60
12769;DHT22;6448;48.916;8.990;2022-09-09T00:58:14;23.00;50.70
12769;DHT22;6448;48.916;8.990;2022-09-09T00:59:24;22.90;50.70
12769;DHT22;6448;48.916;8.990;2022-09-09T01:00:28;23.00;50.70
12769;DHT22;6448;48.916;8.990;2022-09-09T01:01:32;22.90;50.80
12769;DHT22;6448;48.916;8.990;2022-09-09T01:02:39;22.90;50.80
12769;DHT22;6448;48.916;8.990;2022-09-09T01:03:49;23.00;50.70
12769;DHT22;6448;48.916;8.990;2022-09-09T01:04:51;22.90;50.60
12769;DHT22;6448;48.916;8.990;2022-09-09T01:06:11;22.90;50.60
12769;DHT22;6448;48.916;8.990;2022-09-09T01:07:17;22.90;50.50
12769;DHT22;6448;48.916;8.990;2022-09-09T01:08:33;22.90;50.60
12769;DHT22;6448;48.916;8.990;2022-09-09T01:09:44;22.90;50.60
12769;DHT22;6448;48.916;8.990;2022-09-09T01:10:51;23.00;51.30
12769;DHT22;6448;48.916;8.990;2022-09-09T01:11:59;22.90;50.70
12769;DHT22;6448;48.916;8.990;2022-09-09T01:13:13;22.90;50.70
12769;DHT22;6448;48.916;8.990;2022-09-09T01:14:27;22.90;50.70
12769;DHT22;6448;48.916;8.990;2022-09-09T01:15:32;22.90;50.70
12769;DHT22;6448;48.916;8.990;2022-09-09T01:16:36;23.00;50.70
12769;DHT22;6448;48.916;8.990;2022-09-09T01:17:52;22.90;50.70
12769;DHT22;6448;48.916;8.990;2022-09-09T01:18:54;22.90;50.60
12769;DHT22;6448;48.916;8.990;2022-09-09T01:20:03;22.90;50.60
12769;DHT22;6448;48.916;8.990;2022-09-09T01:21:21;22.90;50.70
12769;DHT22;6448;48.916;8.990;2022-09-09T01:22:33;22.90;50.70
12769;DHT22;6448;48.916;8.990;2022-09-09T01:24:08;22.90;50.70
12769;DHT22;6448;48.916;8.990;2022-09-09T01:27:15;22.90;50.70
12769;DHT22;6448;48.916;8.990;2022-09-09T01:28:19;22.90;50.70
12769;DHT22;6448;48.916;8.990;2022-09-09T01:29:23;22.90;50.70
12769;DHT22;6448;48.916;8.990;2022-09-09T01:30:26;22.90;50.70
12769;DHT22;6448;48.916;8.990;2022-09-09T01:31:31;22.80;50.70
12769;DHT22;6448;48.916;8.990;2022-09-09T01:32:40;22.90;50.80
12769;DHT22;6448;48.916;8.990;2022-09-09T01:33:42;22.90;50.90
12769;DHT22;6448;48.916;8.990;2022-09-09T01:34:45;22.90;51.00
12769;DHT22;6448;48.916;8.990;2022-09-09T01:35:50;22.90;51.00
12769;DHT22;6448;48.916;8.990;2022-09-09T01:36:59;22.90;51.00
12769;DHT22;6448;48.916;8.990;2022-09-09T01:38:05;22.60;50.90
12769;DHT22;6448;48.916;8.990;2022-09-09T01:39:07;22.90;51.10
12769;DHT22;6448;48.916;8.990;2022-09-09T01:40:10;22.90;51.00
12769;DHT22;6448;48.916;8.990;2022-09-09T01:41:11;22.90;51.00
12769;DHT22;6448;48.916;8.990;2022-09-09T01:42:26;22.90;51.00
12769;DHT22;6448;48.916;8.990;2022-09-09T01:43:28;22.90;51.10
12769;DHT22;6448;48.916;8.990;2022-09-09T01:44:31;22.90;51.00
12769;DHT22;6448;48.916;8.990;2022-09-09T01:45:32;22.80;51.00
12769;DHT22;6448;48.916;8.990;2022-09-09T01:46:34;22.90;51.10
12769;DHT22;6448;48.916;8.990;2022-09-09T01:47:36;22.90;51.10
12769;DHT22;6448;48.916;8.990;2022-09-09T01:48:50;22.90;51.20
12769;DHT22;6448;48.916;8.990;2022-09-09T01:49:52;22.90;51.20
12769;DHT22;6448;48.916;8.990;2022-09-09T01:50:57;22.90;51.20
12769;DHT22;6448;48.916;8.990;2022-09-09T01:51:59;22.90;51.30
12769;DHT22;6448;48.916;8.990;2022-09-09T01:53:09;22.80;51.30
12769;DHT22;6448;48.916;8.990;2022-09-09T01:54:12;22.90;51.40
12769;DHT22;6448;48.916;8.990;2022-09-09T01:55:14;22.80;51.40
12769;DHT22;6448;48.916;8.990;2022-09-09T01:56:27;22.90;51.50
12769;DHT22;6448;48.916;8.990;2022-09-09T01:57:36;22.90;51.60
12769;DHT22;6448;48.916;8.990;2022-09-09T01:58:52;22.80;51.50
12769;DHT22;6448;48.916;8.990;2022-09-09T02:00:03;22.80;51.50
12769;DHT22;6448;48.916;8.990;2022-09-09T02:01:20;22.90;51.60
12769;DHT22;6448;48.916;8.990;2022-09-09T02:02:30;22.90;51.70
12769;DHT22;6448;48.916;8.990;2022-09-09T02:03:46;22.80;52.30
12769;DHT22;6448;48.916;8.990;2022-09-09T02:04:54;22.80;51.70
12769;DHT22;6448;48.916;8.990;2022-09-09T02:06:08;22.90;51.90
12769;DHT22;6448;48.916;8.990;2022-09-09T02:07:26;22.80;51.70
12769;DHT22;6448;48.916;8.990;2022-09-09T02:08:38;22.80;51.50
12769;DHT22;6448;48.916;8.990;2022-09-09T02:09:47;22.90;51.90
12769;DHT22;6448;48.916;8.990;2022-09-09T02:10:56;22.80;52.10
12769;DHT22;6448;48.916;8.990;2022-09-09T02:12:14;22.80;52.00
12769;DHT22;6448;48.916;8.990;2022-09-09T02:13:25;22.70;51.70
12769;DHT22;6448;48.916;8.990;2022-09-09T02:14:30;22.80;51.80
12769;DHT22;6448;48.916;8.990;2022-09-09T02:15:35;22.70;51.70
12769;DHT22;6448;48.916;8.990;2022-09-09T02:16:42;22.70;51.80
12769;DHT22;6448;48.916;8.990;2022-09-09T02:17:49;22.70;51.90
12769;DHT22;6448;48.916;8.990;2022-09-09T02:18:57;22.70;52.00
12769;DHT22;6448;48.916;8.990;2022-09-09T02:20:12;22.60;52.00
12769;DHT22;6448;48.916;8.990;2022-09-09T02:21:20;22.70;52.20
12769;DHT22;6448;48.916;8.990;2022-09-09T02:22:24;22.70;52.30
12769;DHT22;6448;48.916;8.990;2022-09-09T02:23:29;22.70;52.30
12769;DHT22;6448;48.916;8.990;2022-09-09T02:24:36;22.60;52.30
12769;DHT22;6448;48.916;8.990;2022-09-09T02:25:48;22.70;52.50
12769;DHT22;6448;48.916;8.990;2022-09-09T02:26:57;22.70;52.50
12769;DHT22;6448;48.916;8.990;2022-09-09T02:27:59;22.60;52.60
12769;DHT22;6448;48.916;8.990;2022-09-09T02:29:06;22.70;52.60
12769;DHT22;6448;48.916;8.990;2022-09-09T02:30:10;22.80;52.80
12769;DHT22;6448;48.916;8.990;2022-09-09T02:31:19;22.70;52.80
12769;DHT22;6448;48.916;8.990;2022-09-09T02:32:22;22.70;52.80
12769;DHT22;6448;48.916;8.990;2022-09-09T02:33:28;22.70;52.90
12769;DHT22;6448;48.916;8.990;2022-09-09T02:34:34;22.70;53.50
12769;DHT22;6448;48.916;8.990;2022-09-09T02:35:38;22.80;52.90
12769;DHT22;6448;48.916;8.990;2022-09-09T02:36:41;22.70;52.90
12769;DHT22;6448;48.916;8.990;2022-09-09T02:37:45;22.70;52.90
12769;DHT22;6448;48.916;8.990;2022-09-09T02:38:47;22.70;53.00
12769;DHT22;6448;48.916;8.990;2022-09-09T02:39:54;22.60;52.90
12769;DHT22;6448;48.916;8.990;2022-09-09T02:40:57;22.70;53.00
12769;DHT22;6448;48.916;8.990;2022-09-09T02:41:59;22.70;53.00
12769;DHT22;6448;48.916;8.990;2022-09-09T02:43:05;22.70;53.10
12769;DHT22;6448;48.916;8.990;2022-09-09T02:44:12;22.70;53.00
12769;DHT22;6448;48.916;8.990;2022-09-09T02:45:16;22.70;52.90
12769;DHT22;6448;48.916;8.990;2022-09-09T02:46:32;22.70;52.90
12769;DHT22;6448;48.916;8.990;2022-09-09T02:47:40;22.70;52.80
12769;DHT22;6448;48.916;8.990;2022-09-09T02:48:57;22.60;52.70
12769;DHT22;6448;48.916;8.990;2022-09-09T02:50:10;22.70;52.60
12769;DHT22;6448;48.916;8.990;2022-09-09T02:51:18;22.70;52.60
12769;DHT22;6448;48.916;8.990;2022-09-09T02:52:24;22.70;52.60
12769;DHT22;6448;48.916;8.990;2022-09-09T02:53:35;22.70;52.60
12769;DHT22;6448;48.916;8.990;2022-09-09T02:54:40;22.70;52.60
12769;DHT22;6448;48.916;8.990;2022-09-09T02:55:47;22.70;52.50
12769;DHT22;6448;48.916;8.990;2022-09-09T02:56:52;22.70;52.50
12769;DHT22;6448;48.916;8.990;2022-09-09T02:57:57;22.60;52.50
12769;DHT22;6448;48.916;8.990;2022-09-09T02:59:03;22.70;52.50
12769;DHT22;6448;48.916;8.990;2022-09-09T03:00:07;22.80;52.50
12769;DHT22;6448;48.916;8.990;2022-09-09T03:01:09;22.70;52.60
12769;DHT22;6448;48.916;8.990;2022-09-09T03:02:10;22.70;52.60
12769;DHT22;6448;48.916;8.990;2022-09-09T03:03:15;22.70;52.60
12769;DHT22;6448;48.916;8.990;2022-09-09T03:04:17;22.70;52.60
12769;DHT22;6448;48.916;8.990;2022-09-09T03:05:19;22.60;52.60
12769;DHT22;6448;48.916;8.990;2022-09-09T03:06:20;22.70;52.70
12769;DHT22;6448;48.916;8.990;2022-09-09T03:07:35;22.60;52.70
12769;DHT22;6448;48.916;8.990;2022-09-09T03:08:36;22.70;52.70
12769;DHT22;6448;48.916;8.990;2022-09-09T03:09:38;22.70;52.80
12769;DHT22;6448;48.916;8.990;2022-09-09T03:10:39;22.60;52.80
12769;DHT22;6448;48.916;8.990;2022-09-09T03:11:41;22.60;52.80
12769;DHT22;6448;48.916;8.990;2022-09-09T03:12:42;22.80;52.70
12769;DHT22;6448;48.916;8.990;2022-09-09T03:13:44;22.70;52.60
12769;DHT22;6448;48.916;8.990;2022-09-09T03:14:45;22.60;52.40
12769;DHT22;6448;48.916;8.990;2022-09-09T03:15:49;22.60;52.30
12769;DHT22;6448;48.916;8.990;2022-09-09T03:16:53;22.60;52.30
12769;DHT22;6448;48.916;8.990;2022-09-09T03:17:58;22.60;52.30
12769;DHT22;6448;48.916;8.990;2022-09-09T03:18:59;22.60;52.30
12769;DHT22;6448;48.916;8.990;2022-09-09T03:20:02;22.60;52.30
12769;DHT22;6448;48.916;8.990;2022-09-09T03:21:04;22.60;52.30
12769;DHT22;6448;48.916;8.990;2022-09-09T03:22:06;22.60;52.30
12769;DHT22;6448;48.916;8.990;2022-09-09T03:23:09;22.50;52.40
12769;DHT22;6448;48.916;8.990;2022-09-09T03:24:11;22.60;52.60
12769;DHT22;6448;48.916;8.990;2022-09-09T03:25:13;22.60;52.60
12769;DHT22;6448;48.916;8.990;2022-09-09T03:26:14;22.60;52.60
12769;DHT22;6448;48.916;8.990;2022-09-09T03:27:19;22.60;52.70
12769;DHT22;6448;48.916;8.990;2022-09-09T03:28:21;22.60;52.80
12769;DHT22;6448;48.916;8.990;2022-09-09T03:29:22;22.60;52.80
12769;DHT22;6448;48.916;8.990;2022-09-09T03:30:28;22.60;52.90
12769;DHT22;6448;48.916;8.990;2022-09-09T03:31:32;22.60;52.90
12769;DHT22;6448;48.916;8.990;2022-09-09T03:32:34;22.60;52.90
12769;DHT22;6448;48.916;8.990;2022-09-09T03:33:35;22.50;52.80
12769;DHT22;6448;48.916;8.990;2022-09-09T03:34:37;22.60;52.90
12769;DHT22;6448;48.916;8.990;2022-09-09T03:35:45;22.60;53.00
12769;DHT22;6448;48.916;8.990;2022-09-09T03:36:50;22.50;53.00
12769;DHT22;6448;48.916;8.990;2022-09-09T03:37:52;22.50;52.90
12769;DHT22;6448;48.916;8.990;2022-09-09T03:38:53;22.50;52.90
12769;DHT22;6448;48.916;8.990;2022-09-09T03:39:56;22.50;52.90
12769;DHT22;6448;48.916;8.990;2022-09-09T03:40:57;22.50;52.80
12769;DHT22;6448;48.916;8.990;2022-09-09T03:42:00;22.50;52.80
12769;DHT22;6448;48.916;8.990;2022-09-09T03:43:04;22.50;52.90
12769;DHT22;6448;48.916;8.990;2022-09-09T03:44:06;22.50;52.90
12769;DHT22;6448;48.916;8.990;2022-09-09T03:45:12;22.50;52.90
12769;DHT22;6448;48.916;8.990;2022-09-09T03:46:15;22.50;52.90
12769;DHT22;6448;48.916;8.990;2022-09-09T03:47:18;22.50;52.90
12769;DHT22;6448;48.916;8.990;2022-09-09T03:48:22;22.50;52.80
12769;DHT22;6448;48.916;8.990;2022-09-09T03:49:23;22.50;52.70
12769;DHT22;6448;48.916;8.990;2022-09-09T03:50:25;22.50;52.60
12769;DHT22;6448;48.916;8.990;2022-09-09T03:51:26;22.50;52.60
12769;DHT22;6448;48.916;8.990;2022-09-09T03:52:28;22.50;52.60
12769;DHT22;6448;48.916;8.990;2022-09-09T03:53:30;22.50;52.50
12769;DHT22;6448;48.916;8.990;2022-09-09T03:54:32;22.50;52.40
12769;DHT22;6448;48.916;8.990;2022-09-09T03:55:33;22.50;52.40
12769;DHT22;6448;48.916;8.990;2022-09-09T03:56:36;22.50;52.40
12769;DHT22;6448;48.916;8.990;2022-09-09T03:57:37;22.50;52.40
12769;DHT22;6448;48.916;8.990;2022-09-09T03:58:42;22.50;52.50
12769;DHT22;6448;48.916;8.990;2022-09-09T03:59:45;22.40;52.40
12769;DHT22;6448;48.916;8.990;2022-09-09T04:00:54;22.40;52.30
12769;DHT22;6448;48.916;8.990;2022-09-09T04:01:55;22.40;52.30
12769;DHT22;6448;48.916;8.990;2022-09-09T04:02:58;22.40;52.30
12769;DHT22;6448;48.916;8.990;2022-09-09T04:03:59;22.40;52.40
12769;DHT22;6448;48.916;8.990;2022-09-09T04:05:03;22.30;52.30
12769;DHT22;6448;48.916;8.990;2022-09-09T04:06:05;22.40;52.90
12769;DHT22;6448;48.916;8.990;2022-09-09T04:07:07;22.40;52.30
12769;DHT22;6448;48.916;8.990;2022-09-09T04:08:09;22.40;52.40
12769;DHT22;6448;48.916;8.990;2022-09-09T04:09:12;22.40;52.40
12769;DHT22;6448;48.916;8.990;2022-09-09T04:10:14;22.40;52.40
12769;DHT22;6448;48.916;8.990;2022-09-09T04:11:17;22.40;52.50
12769;DHT22;6448;48.916;8.990;2022-09-09T04:12:20;22.40;52.60
12769;DHT22;6448;48.916;8.990;2022-09-09T04:13:24;22.40;52.60
12769;DHT22;6448;48.916;8.990;2022-09-09T04:14:26;22.40;52.60
12769;DHT22;6448;48.916;8.990;2022-09-09T04:15:30;22.40;52.70
12769;DHT22;6448;48.916;8.990;2022-09-09T04:16:32;22.40;52.60
12769;DHT22;6448;48.916;8.990;2022-09-09T04:17:33;22.40;52.60
12769;DHT22;6448;48.916;8.990;2022-09-09T04:18:38;22.40;52.70
12769;DHT22;6448;48.916;8.990;2022-09-09T04:19:39;22.40;52.70
12769;DHT22;6448;48.916;8.990;2022-09-09T04:20:40;22.30;52.60
12769;DHT22;6448;48.916;8.990;2022-09-09T04:21:43;22.30;52.70
12769;DHT22;6448;48.916;8.990;2022-09-09T04:22:46;22.30;52.80
12769;DHT22;6448;48.916;8.990;2022-09-09T04:23:46;22.30;52.80
12769;DHT22;6448;48.916;8.990;2022-09-09T04:24:48;22.30;52.70
12769;DHT22;6448;48.916;8.990;2022-09-09T04:25:51;22.30;52.70
12769;DHT22;6448;48.916;8.990;2022-09-09T04:26:53;22.30;52.60
12769;DHT22;6448;48.916;8.990;2022-09-09T04:27:54;22.30;52.60
12769;DHT22;6448;48.916;8.990;2022-09-09T04:28:56;22.30;52.60
12769;DHT22;6448;48.916;8.990;2022-09-09T04:29:57;22.30;52.60
12769;DHT22;6448;48.916;8.990;2022-09-09T04:31:05;22.30;52.60
12769;DHT22;6448;48.916;8.990;2022-09-09T04:32:07;22.30;52.60
12769;DHT22;6448;48.916;8.990;2022-09-09T04:33:09;22.30;52.40
12769;DHT22;6448;48.916;8.990;2022-09-09T04:34:11;22.30;52.20
12769;DHT22;6448;48.916;8.990;2022-09-09T04:35:14;22.30;52.30
12769;DHT22;6448;48.916;8.990;2022-09-09T04:36:16;22.30;52.20
12769;DHT22;6448;48.916;8.990;2022-09-09T04:37:19;22.30;52.30
12769;DHT22;6448;48.916;8.990;2022-09-09T04:38:20;22.30;52.10
12769;DHT22;6448;48.916;8.990;2022-09-09T04:39:23;22.30;51.90
12769;DHT22;6448;48.916;8.990;2022-09-09T04:40:25;22.30;51.80
12769;DHT22;6448;48.916;8.990;2022-09-09T04:41:27;22.30;51.80
12769;DHT22;6448;48.916;8.990;2022-09-09T04:42:29;22.30;51.90
12769;DHT22;6448;48.916;8.990;2022-09-09T04:43:30;22.30;52.20
12769;DHT22;6448;48.916;8.990;2022-09-09T04:44:32;22.30;51.90
12769;DHT22;6448;48.916;8.990;2022-09-09T04:45:34;22.30;52.00
12769;DHT22;6448;48.916;8.990;2022-09-09T04:46:34;22.30;52.00
12769;DHT22;6448;48.916;8.990;2022-09-09T04:47:37;22.30;52.00
12769;DHT22;6448;48.916;8.990;2022-09-09T04:48:38;22.30;52.00
12769;DHT22;6448;48.916;8.990;2022-09-09T04:49:43;22.30;51.90
12769;DHT22;6448;48.916;8.990;2022-09-09T04:50:53;22.30;51.90
12769;DHT22;6448;48.916;8.990;2022-09-09T04:51:55;22.30;51.80
12769;DHT22;6448;48.916;8.990;2022-09-09T04:53:00;22.30;51.70
12769;DHT22;6448;48.916;8.990;2022-09-09T04:54:01;22.30;51.60
12769;DHT22;6448;48.916;8.990;2022-09-09T04:55:04;22.30;51.50
12769;DHT22;6448;48.916;8.990;2022-09-09T04:56:07;22.30;51.50
12769;DHT22;6448;48.916;8.990;2022-09-09T04:57:13;22.30;51.30
12769;DHT22;6448;48.916;8.990;2022-09-09T04:58:15;22.30;51.30
12769;DHT22;6448;48.916;8.990;2022-09-09T04:59:16;22.30;51.40
12769;DHT22;6448;48.916;8.990;2022-09-09T05:00:21;22.20;51.30
12769;DHT22;6448;48.916;8.990;2022-09-09T05:01:23;22.30;51.50
12769;DHT22;6448;48.916;8.990;2022-09-09T05:02:27;22.30;51.50
12769;DHT22;6448;48.916;8.990;2022-09-09T05:03:28;22.30;51.60
12769;DHT22;6448;48.916;8.990;2022-09-09T05:04:30;22.20;51.60
12769;DHT22;6448;48.916;8.990;2022-09-09T05:05:33;22.20;51.70
12769;DHT22;6448;48.916;8.990;2022-09-09T05:06:35;22.20;51.60
12769;DHT22;6448;48.916;8.990;2022-09-09T05:07:37;22.20;51.60
12769;DHT22;6448;48.916;8.990;2022-09-09T05:08:39;22.20;51.60
12769;DHT22;6448;48.916;8.990;2022-09-09T05:09:40;22.20;51.70
12769;DHT22;6448;48.916;8.990;2022-09-09T05:10:42;22.30;51.80
12769;DHT22;6448;48.916;8.990;2022-09-09T05:11:43;22.20;51.60
12769;DHT22;6448;48.916;8.990;2022-09-09T05:12:55;22.30;51.60
12769;DHT22;6448;48.916;8.990;2022-09-09T05:14:00;22.30;51.50
12769;DHT22;6448;48.916;8.990;2022-09-09T05:15:04;22.20;51.40
12769;DHT22;6448;48.916;8.990;2022-09-09T05:16:06;22.30;51.60
12769;DHT22;6448;48.916;8.990;2022-09-09T05:17:07;22.20;51.60
12769;DHT22;6448;48.916;8.990;2022-09-09T05:18:11;22.20;51.60
12769;DHT22;6448;48.916;8.990;2022-09-09T05:19:13;22.20;51.60
12769;DHT22;6448;48.916;8.990;2022-09-09T05:20:21;22.20;51.70
12769;DHT22;6448;48.916;8.990;2022-09-09T05:21:24;22.30;51.70
12769;DHT22;6448;48.916;8.990;2022-09-09T05:22:26;22.30;51.70
12769;DHT22;6448;48.916;8.990;2022-09-09T05:23:28;22.20;51.60
12769;DHT22;6448;48.916;8.990;2022-09-09T05:24:29;22.20;51.30
12769;DHT22;6448;48.916;8.990;2022-09-09T05:25:33;22.20;51.20
12769;DHT22;6448;48.916;8.990;2022-09-09T05:26:36;22.30;51.20
12769;DHT22;6448;48.916;8.990;2022-09-09T05:27:37;22.30;51.30
12769;DHT22;6448;48.916;8.990;2022-09-09T05:28:39;22.20;51.30
12769;DHT22;6448;48.916;8.990;2022-09-09T05:29:40;22.20;51.40
12769;DHT22;6448;48.916;8.990;2022-09-09T05:30:45;22.20;51.40
12769;DHT22;6448;48.916;8.990;2022-09-09T05:31:46;22.20;51.40
12769;DHT22;6448;48.916;8.990;2022-09-09T05:32:50;22.20;51.40
12769;DHT22;6448;48.916;8.990;2022-09-09T05:33:52;22.20;51.40
12769;DHT22;6448;48.916;8.990;2022-09-09T05:34:54;22.20;51.30
12769;DHT22;6448;48.916;8.990;2022-09-09T05:36:00;22.30;51.20
12769;DHT22;6448;48.916;8.990;2022-09-09T05:37:03;22.20;51.00
12769;DHT22;6448;48.916;8.990;2022-09-09T05:38:06;22.30;51.10
12769;DHT22;6448;48.916;8.990;2022-09-09T05:39:07;22.20;51.00
12769;DHT22;6448;48.916;8.990;2022-09-09T05:40:09;22.20;51.10
12769;DHT22;6448;48.916;8.990;2022-09-09T05:41:13;22.20;51.10
12769;DHT22;6448;48.916;8.990;2022-09-09T05:42:16;22.20;51.20
12769;DHT22;6448;48.916;8.990;2022-09-09T05:43:19;22.20;51.20
12769;DHT22;6448;48.916;8.990;2022-09-09T05:44:20;22.30;51.30
12769;DHT22;6448;48.916;8.990;2022-09-09T05:45:23;22.40;51.30
12769;DHT22;6448;48.916;8.990;2022-09-09T05:46:24;22.20;51.20
12769;DHT22;6448;48.916;8.990;2022-09-09T05:47:28;22.20;51.20
12769;DHT22;6448;48.916;8.990;2022-09-09T05:48:29;22.20;51.20
12769;DHT22;6448;48.916;8.990;2022-09-09T05:49:32;22.20;51.10
12769;DHT22;6448;48.916;8.990;2022-09-09T05:50:33;22.20;51.00
12769;DHT22;6448;48.916;8.990;2022-09-09T05:51:35;22.30;51.00
12769;DHT22;6448;48.916;8.990;2022-09-09T05:52:42;22.20;51.00
12769;DHT22;6448;48.916;8.990;2022-09-09T05:53:46;22.20;51.00
12769;DHT22;6448;48.916;8.990;2022-09-09T05:54:47;22.20;50.90
12769;DHT22;6448;48.916;8.990;2022-09-09T05:55:49;22.30;50.90
12769;DHT22;6448;48.916;8.990;2022-09-09T05:56:50;22.20;50.80
12769;DHT22;6448;48.916;8.990;2022-09-09T05:57:54;22.30;50.80
12769;DHT22;6448;48.916;8.990;2022-09-09T05:58:55;22.20;50.70
12769;DHT22;6448;48.916;8.990;2022-09-09T05:59:58;22.20;50.70
12769;DHT22;6448;48.916;8.990;2022-09-09T06:01:03;22.20;50.70
12769;DHT22;6448;48.916;8.990;2022-09-09T06:02:08;22.20;50.70
12769;DHT22;6448;48.916;8.990;2022-09-09T06:03:11;22.20;50.70
12769;DHT22;6448;48.916;8.990;2022-09-09T06:04:13;22.20;50.60
12769;DHT22;6448;48.916;8.990;2022-09-09T06:05:15;22.20;50.60
12769;DHT22;6448;48.916;8.990;2022-09-09T06:06:18;22.20;50.70
12769;DHT22;6448;48.916;8.990;2022-09-09T06:07:22;22.20;50.60
12769;DHT22;6448;48.916;8.990;2022-09-09T06:08:25;22.20;50.70
12769;DHT22;6448;48.916;8.990;2022-09-09T06:09:26;22.20;50.70
12769;DHT22;6448;48.916;8.990;2022-09-09T06:10:30;22.20;50.80
12769;DHT22;6448;48.916;8.990;2022-09-09T06:11:32;22.20;50.80
12769;DHT22;6448;48.916;8.990;2022-09-09T06:12:34;22.20;50.90
12769;DHT22;6448;48.916;8.990;2022-09-09T06:13:36;22.20;50.90
12769;DHT22;6448;48.916;8.990;2022-09-09T06:14:39;22.20;50.90
12769;DHT22;6448;48.916;8.990;2022-09-09T06:15:49;22.20;50.90
12769;DHT22;6448;48.916;8.990;2022-09-09T06:16:52;22.20;50.90
12769;DHT22;6448;48.916;8.990;2022-09-09T06:17:57;22.20;51.00
12769;DHT22;6448;48.916;8.990;2022-09-09T06:18:58;22.30;51.10
12769;DHT22;6448;48.916;8.990;2022-09-09T06:20:01;22.20;51.00
12769;DHT22;6448;48.916;8.990;2022-09-09T06:21:06;22.20;51.00
12769;DHT22;6448;48.916;8.990;2022-09-09T06:22:08;22.20;51.00
12769;DHT22;6448;48.916;8.990;2022-09-09T06:23:13;22.20;51.00
12769;DHT22;6448;48.916;8.990;2022-09-09T06:24:15;22.20;50.90
12769;DHT22;6448;48.916;8.990;2022-09-09T06:25:19;22.20;50.90
12769;DHT22;6448;48.916;8.990;2022-09-09T06:26:22;22.20;50.90
12769;DHT22;6448;48.916;8.990;2022-09-09T06:27:27;22.20;50.90
12769;DHT22;6448;48.916;8.990;2022-09-09T06:28:28;22.20;50.90
12769;DHT22;6448;48.916;8.990;2022-09-09T06:29:30;22.20;50.80
12769;DHT22;6448;48.916;8.990;2022-09-09T06:30:32;22.20;50.80
12769;DHT22;6448;48.916;8.990;2022-09-09T06:31:34;22.20;50.70
12769;DHT22;6448;48.916;8.990;2022-09-09T06:32:49;22.20;50.80
12769;DHT22;6448;48.916;8.990;2022-09-09T06:33:53;22.20;50.80
12769;DHT22;6448;48.916;8.990;2022-09-09T06:34:57;22.20;50.70
12769;DHT22;6448;48.916;8.990;2022-09-09T06:35:59;22.20;50.80
12769;DHT22;6448;48.916;8.990;2022-09-09T06:37:00;22.20;50.70
12769;DHT22;6448;48.916;8.990;2022-09-09T06:38:09;22.20;50.70
12769;DHT22;6448;48.916;8.990;2022-09-09T06:39:09;22.20;50.80
12769;DHT22;6448;48.916;8.990;2022-09-09T06:40:13;22.20;50.90
12769;DHT22;6448;48.916;8.990;2022-09-09T06:41:17;22.10;51.00
12769;DHT22;6448;48.916;8.990;2022-09-09T06:42:20;22.20;51.00
12769;DHT22;6448;48.916;8.990;2022-09-09T06:43:24;22.20;50.90
12769;DHT22;6448;48.916;8.990;2022-09-09T06:44:28;22.20;50.90
12769;DHT22;6448;48.916;8.990;2022-09-09T06:45:34;22.20;50.80
12769;DHT22;6448;48.916;8.990;2022-09-09T06:46:37;22.20;50.60
12769;DHT22;6448;48.916;8.990;2022-09-09T06:47:40;22.20;50.60
12769;DHT22;6448;48.916;8.990;2022-09-09T06:48:43;22.20;50.50
12769;DHT22;6448;48.916;8.990;2022-09-09T06:49:46;22.20;50.50
12769;DHT22;6448;48.916;8.990;2022-09-09T06:50:48;22.20;50.50
12769;DHT22;6448;48.916;8.990;2022-09-09T06:51:50;22.20;50.70
12769;DHT22;6448;48.916;8.990;2022-09-09T06:52:52;22.20;50.70
12769;DHT22;6448;48.916;8.990;2022-09-09T06:53:54;22.30;50.80
12769;DHT22;6448;48.916;8.990;2022-09-09T06:54:58;22.20;50.80
12769;DHT22;6448;48.916;8.990;2022-09-09T06:56:01;22.30;50.90
12769;DHT22;6448;48.916;8.990;2022-09-09T06:57:04;22.30;50.90
12769;DHT22;6448;48.916;8.990;2022-09-09T06:58:08;22.30;50.90
12769;DHT22;6448;48.916;8.990;2022-09-09T06:59:11;22.30;51.00